sensor_id;sensor_type;location;lat;lon;timestamp;P1;durP1;ratioP1;P2;durP2;ratioP2
14740;SDS011;7462;53.530;9.414;2022-07-29T00:01:18;4.03;;;1.70;;
14740;SDS011;7462;53.530;9.414;2022-07-29T00:03:46;2.43;;;1.70;;
14740;SDS011;7462;53.530;9.414;2022-07-29T00:06:14;3.53;;;1.57;;
14740;SDS011;7462;53.530;9.414;2022-07-29T00:08:44;2.83;;;1.30;;
14740;SDS011;7462;53.530;9.414;2022-07-29T00:11:12;2.23;;;1.50;;
14740;SDS011;7462;53.530;9.414;2022-07-29T00:13:40;4.10;;;1.73;;
14740;SDS011;7462;53.530;9.414;2022-07-29T00:16:15;3.27;;;1.80;;
14740;SDS011;7462;53.530;9.414;2022-07-29T00:18:44;3.10;;;1.70;;
14740;SDS011;7462;53.530;9.414;2022-07-29T00:21:12;2.63;;;1.60;;
14740;SDS011;7462;53.530;9.414;2022-07-29T00:23:40;3.03;;;1.73;;
14740;SDS011;7462;53.530;9.414;2022-07-29T00:26:10;2.70;;;1.57;;
14740;SDS011;7462;53.530;9.414;2022-07-29T00:28:38;3.57;;;1.70;;
14740;SDS011;7462;53.530;9.414;2022-07-29T00:31:06;2.30;;;1.60;;
14740;SDS011;7462;53.530;9.414;2022-07-29T00:33:35;3.23;;;1.70;;
14740;SDS011;7462;53.530;9.414;2022-07-29T00:36:03;4.03;;;1.80;;
14740;SDS011;7462;53.530;9.414;2022-07-29T00:38:31;2.47;;;1.90;;
14740;SDS011;7462;53.530;9.414;2022-07-29T00:40:59;2.50;;;1.97;;
14740;SDS011;7462;53.530;9.414;2022-07-29T00:43:28;2.73;;;1.97;;
14740;SDS011;7462;53.530;9.414;2022-07-29T00:45:57;5.13;;;1.73;;
14740;SDS011;7462;53.530;9.414;2022-07-29T00:48:25;2.47;;;1.67;;
14740;SDS011;7462;53.530;9.414;2022-07-29T00:50:53;5.70;;;1.80;;
14740;SDS011;7462;53.530;9.414;2022-07-29T00:53:22;2.83;;;1.70;;
14740;SDS011;7462;53.530;9.414;2022-07-29T00:55:52;2.90;;;1.70;;
14740;SDS011;7462;53.530;9.414;2022-07-29T00:58:21;3.27;;;1.67;;
14740;SDS011;7462;53.530;9.414;2022-07-29T01:00:51;2.43;;;1.90;;
14740;SDS011;7462;53.530;9.414;2022-07-29T01:03:19;2.83;;;1.80;;
14740;SDS011;7462;53.530;9.414;2022-07-29T01:05:48;2.00;;;1.63;;
14740;SDS011;7462;53.530;9.414;2022-07-29T01:08:17;1.97;;;1.67;;
14740;SDS011;7462;53.530;9.414;2022-07-29T01:10:47;2.30;;;1.83;;
14740;SDS011;7462;53.530;9.414;2022-07-29T01:13:16;5.03;;;2.27;;
14740;SDS011;7462;53.530;9.414;2022-07-29T01:15:46;2.33;;;1.60;;
14740;SDS011;7462;53.530;9.414;2022-07-29T01:18:22;3.63;;;1.67;;
14740;SDS011;7462;53.530;9.414;2022-07-29T01:21:01;3.70;;;1.80;;
14740;SDS011;7462;53.530;9.414;2022-07-29T01:23:59;2.30;;;1.70;;
14740;SDS011;7462;53.530;9.414;2022-07-29T01:26:47;2.83;;;1.77;;
14740;SDS011;7462;53.530;9.414;2022-07-29T01:29:23;3.10;;;2.00;;
14740;SDS011;7462;53.530;9.414;2022-07-29T01:32:05;4.00;;;1.97;;
14740;SDS011;7462;53.530;9.414;2022-07-29T01:34:54;2.60;;;1.97;;
14740;SDS011;7462;53.530;9.414;2022-07-29T01:37:26;4.13;;;1.90;;
14740;SDS011;7462;53.530;9.414;2022-07-29T01:39:59;3.27;;;2.03;;
14740;SDS011;7462;53.530;9.414;2022-07-29T01:42:32;2.70;;;1.83;;
14740;SDS011;7462;53.530;9.414;2022-07-29T01:45:06;4.37;;;2.07;;
14740;SDS011;7462;53.530;9.414;2022-07-29T01:47:42;4.50;;;1.90;;
14740;SDS011;7462;53.530;9.414;2022-07-29T01:50:14;1.60;;;1.30;;
14740;SDS011;7462;53.530;9.414;2022-07-29T01:52:46;3.30;;;1.40;;
14740;SDS011;7462;53.530;9.414;2022-07-29T01:55:20;4.20;;;2.00;;
14740;SDS011;7462;53.530;9.414;2022-07-29T01:57:49;1.87;;;1.60;;
14740;SDS011;7462;53.530;9.414;2022-07-29T02:00:19;3.13;;;1.57;;
14740;SDS011;7462;53.530;9.414;2022-07-29T02:02:49;4.03;;;1.60;;
14740;SDS011;7462;53.530;9.414;2022-07-29T02:05:20;3.83;;;1.73;;
14740;SDS011;7462;53.530;9.414;2022-07-29T02:07:50;1.70;;;1.57;;
14740;SDS011;7462;53.530;9.414;2022-07-29T02:10:21;2.33;;;1.40;;
14740;SDS011;7462;53.530;9.414;2022-07-29T02:12:51;3.77;;;1.77;;
14740;SDS011;7462;53.530;9.414;2022-07-29T02:15:23;3.47;;;1.77;;
14740;SDS011;7462;53.530;9.414;2022-07-29T02:17:54;4.40;;;1.87;;
14740;SDS011;7462;53.530;9.414;2022-07-29T02:20:25;3.57;;;1.47;;
14740;SDS011;7462;53.530;9.414;2022-07-29T02:22:53;2.57;;;1.60;;
14740;SDS011;7462;53.530;9.414;2022-07-29T02:25:23;3.90;;;1.80;;
14740;SDS011;7462;53.530;9.414;2022-07-29T02:28:03;3.93;;;1.73;;
14740;SDS011;7462;53.530;9.414;2022-07-29T02:30:34;2.93;;;1.90;;
14740;SDS011;7462;53.530;9.414;2022-07-29T02:33:06;3.03;;;1.60;;
14740;SDS011;7462;53.530;9.414;2022-07-29T02:35:37;3.87;;;2.00;;
14740;SDS011;7462;53.530;9.414;2022-07-29T02:38:08;3.60;;;2.03;;
14740;SDS011;7462;53.530;9.414;2022-07-29T02:40:57;4.27;;;1.80;;
14740;SDS011;7462;53.530;9.414;2022-07-29T02:43:27;2.47;;;1.97;;
14740;SDS011;7462;53.530;9.414;2022-07-29T02:45:59;2.10;;;1.70;;
14740;SDS011;7462;53.530;9.414;2022-07-29T02:48:38;2.93;;;2.13;;
14740;SDS011;7462;53.530;9.414;2022-07-29T02:51:12;2.57;;;1.80;;
14740;SDS011;7462;53.530;9.414;2022-07-29T02:54:06;2.27;;;1.80;;
14740;SDS011;7462;53.530;9.414;2022-07-29T02:56:36;4.83;;;2.30;;
14740;SDS011;7462;53.530;9.414;2022-07-29T02:59:11;3.20;;;1.83;;
14740;SDS011;7462;53.530;9.414;2022-07-29T03:01:42;2.73;;;1.90;;
14740;SDS011;7462;53.530;9.414;2022-07-29T03:04:12;3.03;;;1.83;;
14740;SDS011;7462;53.530;9.414;2022-07-29T03:06:42;2.93;;;2.03;;
14740;SDS011;7462;53.530;9.414;2022-07-29T03:09:11;3.27;;;1.90;;
14740;SDS011;7462;53.530;9.414;2022-07-29T03:11:41;3.20;;;1.97;;
14740;SDS011;7462;53.530;9.414;2022-07-29T03:14:16;3.57;;;2.20;;
14740;SDS011;7462;53.530;9.414;2022-07-29T03:16:48;2.77;;;2.00;;
14740;SDS011;7462;53.530;9.414;2022-07-29T03:19:17;3.87;;;1.87;;
14740;SDS011;7462;53.530;9.414;2022-07-29T03:21:46;4.70;;;2.10;;
14740;SDS011;7462;53.530;9.414;2022-07-29T03:24:25;3.13;;;2.10;;
14740;SDS011;7462;53.530;9.414;2022-07-29T03:26:55;7.13;;;2.30;;
14740;SDS011;7462;53.530;9.414;2022-07-29T03:29:25;5.90;;;2.10;;
14740;SDS011;7462;53.530;9.414;2022-07-29T03:32:01;3.47;;;2.13;;
14740;SDS011;7462;53.530;9.414;2022-07-29T03:34:34;6.27;;;1.93;;
14740;SDS011;7462;53.530;9.414;2022-07-29T03:37:03;3.63;;;2.13;;
14740;SDS011;7462;53.530;9.414;2022-07-29T03:39:33;3.70;;;2.17;;
14740;SDS011;7462;53.530;9.414;2022-07-29T03:42:05;2.27;;;1.80;;
14740;SDS011;7462;53.530;9.414;2022-07-29T03:44:36;3.20;;;2.10;;
14740;SDS011;7462;53.530;9.414;2022-07-29T03:47:07;4.37;;;2.50;;
14740;SDS011;7462;53.530;9.414;2022-07-29T03:49:37;3.73;;;2.27;;
14740;SDS011;7462;53.530;9.414;2022-07-29T03:52:07;2.93;;;2.33;;
14740;SDS011;7462;53.530;9.414;2022-07-29T03:54:36;4.27;;;2.30;;
14740;SDS011;7462;53.530;9.414;2022-07-29T03:57:04;3.00;;;2.20;;
14740;SDS011;7462;53.530;9.414;2022-07-29T03:59:34;3.77;;;2.10;;
14740;SDS011;7462;53.530;9.414;2022-07-29T04:02:04;2.67;;;2.30;;
14740;SDS011;7462;53.530;9.414;2022-07-29T04:04:37;4.13;;;2.30;;
14740;SDS011;7462;53.530;9.414;2022-07-29T04:07:05;4.20;;;2.10;;
14740;SDS011;7462;53.530;9.414;2022-07-29T04:09:33;2.53;;;2.07;;
14740;SDS011;7462;53.530;9.414;2022-07-29T04:12:01;5.73;;;2.30;;
14740;SDS011;7462;53.530;9.414;2022-07-29T04:14:30;3.90;;;2.30;;
14740;SDS011;7462;53.530;9.414;2022-07-29T04:16:59;3.10;;;2.40;;
14740;SDS011;7462;53.530;9.414;2022-07-29T04:19:27;2.43;;;2.20;;
14740;SDS011;7462;53.530;9.414;2022-07-29T04:21:57;4.50;;;2.37;;
14740;SDS011;7462;53.530;9.414;2022-07-29T04:24:25;2.50;;;2.07;;
14740;SDS011;7462;53.530;9.414;2022-07-29T04:26:54;3.23;;;2.00;;
14740;SDS011;7462;53.530;9.414;2022-07-29T04:29:22;13.47;;;3.93;;
14740;SDS011;7462;53.530;9.414;2022-07-29T04:31:50;7.03;;;2.77;;
14740;SDS011;7462;53.530;9.414;2022-07-29T04:34:18;4.83;;;2.37;;
14740;SDS011;7462;53.530;9.414;2022-07-29T04:36:46;3.30;;;2.20;;
14740;SDS011;7462;53.530;9.414;2022-07-29T04:39:16;4.87;;;2.53;;
14740;SDS011;7462;53.530;9.414;2022-07-29T04:41:48;2.73;;;2.23;;
14740;SDS011;7462;53.530;9.414;2022-07-29T04:44:21;4.90;;;2.13;;
14740;SDS011;7462;53.530;9.414;2022-07-29T04:46:54;4.30;;;2.40;;
14740;SDS011;7462;53.530;9.414;2022-07-29T04:49:24;4.63;;;2.63;;
14740;SDS011;7462;53.530;9.414;2022-07-29T04:51:52;5.80;;;2.70;;
14740;SDS011;7462;53.530;9.414;2022-07-29T04:54:22;4.63;;;2.40;;
14740;SDS011;7462;53.530;9.414;2022-07-29T04:56:51;3.10;;;2.53;;
14740;SDS011;7462;53.530;9.414;2022-07-29T04:59:19;4.23;;;2.33;;
14740;SDS011;7462;53.530;9.414;2022-07-29T05:01:47;5.47;;;2.23;;
14740;SDS011;7462;53.530;9.414;2022-07-29T05:04:16;4.33;;;2.60;;
14740;SDS011;7462;53.530;9.414;2022-07-29T05:06:45;2.50;;;2.23;;
14740;SDS011;7462;53.530;9.414;2022-07-29T05:09:13;4.13;;;2.33;;
14740;SDS011;7462;53.530;9.414;2022-07-29T05:11:43;4.10;;;2.20;;
14740;SDS011;7462;53.530;9.414;2022-07-29T05:14:11;4.73;;;2.70;;
14740;SDS011;7462;53.530;9.414;2022-07-29T05:16:40;4.77;;;2.60;;
14740;SDS011;7462;53.530;9.414;2022-07-29T05:19:08;3.67;;;2.40;;
14740;SDS011;7462;53.530;9.414;2022-07-29T05:21:40;4.30;;;2.50;;
14740;SDS011;7462;53.530;9.414;2022-07-29T05:24:08;3.60;;;2.30;;
14740;SDS011;7462;53.530;9.414;2022-07-29T05:26:36;3.73;;;2.40;;
14740;SDS011;7462;53.530;9.414;2022-07-29T05:29:06;4.43;;;2.70;;
14740;SDS011;7462;53.530;9.414;2022-07-29T05:31:54;4.43;;;2.80;;
14740;SDS011;7462;53.530;9.414;2022-07-29T05:34:23;3.83;;;2.40;;
14740;SDS011;7462;53.530;9.414;2022-07-29T05:36:51;4.63;;;2.30;;
14740;SDS011;7462;53.530;9.414;2022-07-29T05:39:19;4.73;;;2.30;;
14740;SDS011;7462;53.530;9.414;2022-07-29T05:42:08;4.93;;;2.23;;
14740;SDS011;7462;53.530;9.414;2022-07-29T05:44:38;4.43;;;2.37;;
14740;SDS011;7462;53.530;9.414;2022-07-29T05:47:06;4.37;;;2.67;;
14740;SDS011;7462;53.530;9.414;2022-07-29T05:49:35;5.07;;;2.50;;
14740;SDS011;7462;53.530;9.414;2022-07-29T05:52:03;3.67;;;2.37;;
14740;SDS011;7462;53.530;9.414;2022-07-29T05:54:32;4.37;;;2.43;;
14740;SDS011;7462;53.530;9.414;2022-07-29T05:57:00;3.40;;;2.37;;
14740;SDS011;7462;53.530;9.414;2022-07-29T05:59:28;5.67;;;2.90;;
14740;SDS011;7462;53.530;9.414;2022-07-29T06:01:57;5.73;;;2.50;;
14740;SDS011;7462;53.530;9.414;2022-07-29T06:04:26;3.23;;;2.47;;
14740;SDS011;7462;53.530;9.414;2022-07-29T06:06:54;4.57;;;2.43;;
14740;SDS011;7462;53.530;9.414;2022-07-29T06:09:22;3.00;;;2.40;;
14740;SDS011;7462;53.530;9.414;2022-07-29T06:11:50;4.80;;;2.97;;
14740;SDS011;7462;53.530;9.414;2022-07-29T06:14:18;4.43;;;2.43;;
14740;SDS011;7462;53.530;9.414;2022-07-29T06:16:47;4.90;;;2.90;;
14740;SDS011;7462;53.530;9.414;2022-07-29T06:19:16;6.20;;;3.00;;
14740;SDS011;7462;53.530;9.414;2022-07-29T06:21:45;6.83;;;2.43;;
14740;SDS011;7462;53.530;9.414;2022-07-29T06:24:14;4.70;;;2.57;;
14740;SDS011;7462;53.530;9.414;2022-07-29T06:26:43;7.80;;;3.10;;
14740;SDS011;7462;53.530;9.414;2022-07-29T06:29:12;5.17;;;2.73;;
14740;SDS011;7462;53.530;9.414;2022-07-29T06:31:40;6.80;;;2.83;;
14740;SDS011;7462;53.530;9.414;2022-07-29T06:34:08;4.30;;;2.50;;
14740;SDS011;7462;53.530;9.414;2022-07-29T06:36:37;4.13;;;2.60;;
14740;SDS011;7462;53.530;9.414;2022-07-29T06:39:06;4.40;;;2.57;;
14740;SDS011;7462;53.530;9.414;2022-07-29T06:41:37;6.30;;;2.80;;
14740;SDS011;7462;53.530;9.414;2022-07-29T06:44:08;3.83;;;2.70;;
14740;SDS011;7462;53.530;9.414;2022-07-29T06:46:36;3.43;;;2.57;;
14740;SDS011;7462;53.530;9.414;2022-07-29T06:49:04;4.80;;;2.30;;
14740;SDS011;7462;53.530;9.414;2022-07-29T06:51:33;6.20;;;2.90;;
14740;SDS011;7462;53.530;9.414;2022-07-29T06:54:02;4.47;;;2.33;;
14740;SDS011;7462;53.530;9.414;2022-07-29T06:56:32;7.80;;;2.47;;
14740;SDS011;7462;53.530;9.414;2022-07-29T06:59:05;6.20;;;2.57;;
14740;SDS011;7462;53.530;9.414;2022-07-29T07:01:34;6.03;;;2.60;;
14740;SDS011;7462;53.530;9.414;2022-07-29T07:04:03;5.13;;;2.90;;
14740;SDS011;7462;53.530;9.414;2022-07-29T07:06:31;5.97;;;2.60;;
14740;SDS011;7462;53.530;9.414;2022-07-29T07:08:59;4.40;;;2.50;;
14740;SDS011;7462;53.530;9.414;2022-07-29T07:11:29;5.83;;;2.70;;
14740;SDS011;7462;53.530;9.414;2022-07-29T07:13:57;5.60;;;2.80;;
14740;SDS011;7462;53.530;9.414;2022-07-29T07:16:29;4.43;;;2.73;;
14740;SDS011;7462;53.530;9.414;2022-07-29T07:19:00;5.87;;;2.70;;
14740;SDS011;7462;53.530;9.414;2022-07-29T07:21:29;5.40;;;2.30;;
14740;SDS011;7462;53.530;9.414;2022-07-29T07:23:57;4.27;;;2.50;;
14740;SDS011;7462;53.530;9.414;2022-07-29T07:26:26;4.27;;;2.33;;
14740;SDS011;7462;53.530;9.414;2022-07-29T07:28:55;6.83;;;2.90;;
14740;SDS011;7462;53.530;9.414;2022-07-29T07:31:24;4.30;;;2.60;;
14740;SDS011;7462;53.530;9.414;2022-07-29T07:33:52;7.17;;;2.97;;
14740;SDS011;7462;53.530;9.414;2022-07-29T07:36:20;4.17;;;2.63;;
14740;SDS011;7462;53.530;9.414;2022-07-29T07:38:49;8.37;;;3.10;;
14740;SDS011;7462;53.530;9.414;2022-07-29T07:41:17;5.23;;;3.20;;
14740;SDS011;7462;53.530;9.414;2022-07-29T07:43:45;3.90;;;2.80;;
14740;SDS011;7462;53.530;9.414;2022-07-29T07:46:14;5.30;;;2.87;;
14740;SDS011;7462;53.530;9.414;2022-07-29T07:48:43;5.87;;;2.90;;
14740;SDS011;7462;53.530;9.414;2022-07-29T07:51:11;4.57;;;2.90;;
14740;SDS011;7462;53.530;9.414;2022-07-29T07:53:39;4.40;;;2.67;;
14740;SDS011;7462;53.530;9.414;2022-07-29T07:56:08;5.30;;;2.60;;
14740;SDS011;7462;53.530;9.414;2022-07-29T07:58:37;5.03;;;2.70;;
14740;SDS011;7462;53.530;9.414;2022-07-29T08:01:06;5.30;;;2.80;;
14740;SDS011;7462;53.530;9.414;2022-07-29T08:03:36;5.00;;;2.60;;
14740;SDS011;7462;53.530;9.414;2022-07-29T08:06:05;5.77;;;3.30;;
14740;SDS011;7462;53.530;9.414;2022-07-29T08:08:33;7.60;;;2.90;;
14740;SDS011;7462;53.530;9.414;2022-07-29T08:11:01;4.97;;;2.50;;
14740;SDS011;7462;53.530;9.414;2022-07-29T08:13:35;6.20;;;2.83;;
14740;SDS011;7462;53.530;9.414;2022-07-29T08:16:05;7.40;;;3.20;;
14740;SDS011;7462;53.530;9.414;2022-07-29T08:18:41;4.90;;;2.90;;
14740;SDS011;7462;53.530;9.414;2022-07-29T08:21:10;3.63;;;2.57;;
14740;SDS011;7462;53.530;9.414;2022-07-29T08:23:41;4.97;;;2.60;;
14740;SDS011;7462;53.530;9.414;2022-07-29T08:26:25;4.57;;;2.73;;
14740;SDS011;7462;53.530;9.414;2022-07-29T08:28:53;4.87;;;2.70;;
14740;SDS011;7462;53.530;9.414;2022-07-29T08:31:21;7.03;;;2.90;;
14740;SDS011;7462;53.530;9.414;2022-07-29T08:33:50;4.63;;;2.77;;
14740;SDS011;7462;53.530;9.414;2022-07-29T08:36:19;5.90;;;2.83;;
14740;SDS011;7462;53.530;9.414;2022-07-29T08:38:48;5.03;;;2.60;;
14740;SDS011;7462;53.530;9.414;2022-07-29T08:41:17;4.67;;;2.50;;
14740;SDS011;7462;53.530;9.414;2022-07-29T08:43:46;9.07;;;3.00;;
14740;SDS011;7462;53.530;9.414;2022-07-29T08:46:14;6.83;;;2.80;;
14740;SDS011;7462;53.530;9.414;2022-07-29T08:48:43;6.13;;;2.80;;
14740;SDS011;7462;53.530;9.414;2022-07-29T08:51:14;4.77;;;2.80;;
14740;SDS011;7462;53.530;9.414;2022-07-29T08:53:43;4.50;;;2.77;;
14740;SDS011;7462;53.530;9.414;2022-07-29T08:56:14;3.63;;;2.70;;
14740;SDS011;7462;53.530;9.414;2022-07-29T08:58:44;5.30;;;2.73;;
14740;SDS011;7462;53.530;9.414;2022-07-29T09:01:20;7.07;;;3.10;;
14740;SDS011;7462;53.530;9.414;2022-07-29T09:04:03;7.93;;;2.97;;
14740;SDS011;7462;53.530;9.414;2022-07-29T09:06:34;5.20;;;3.10;;
14740;SDS011;7462;53.530;9.414;2022-07-29T09:09:07;6.57;;;2.90;;
14740;SDS011;7462;53.530;9.414;2022-07-29T09:11:35;7.23;;;2.73;;
14740;SDS011;7462;53.530;9.414;2022-07-29T09:14:04;4.07;;;2.80;;
14740;SDS011;7462;53.530;9.414;2022-07-29T09:16:51;6.77;;;3.10;;
14740;SDS011;7462;53.530;9.414;2022-07-29T09:19:24;6.37;;;2.70;;
14740;SDS011;7462;53.530;9.414;2022-07-29T09:21:57;4.83;;;3.00;;
14740;SDS011;7462;53.530;9.414;2022-07-29T09:24:41;6.13;;;2.63;;
14740;SDS011;7462;53.530;9.414;2022-07-29T09:27:18;6.00;;;2.80;;
14740;SDS011;7462;53.530;9.414;2022-07-29T09:29:58;6.40;;;3.00;;
14740;SDS011;7462;53.530;9.414;2022-07-29T09:32:27;5.77;;;2.77;;
14740;SDS011;7462;53.530;9.414;2022-07-29T09:35:14;5.27;;;2.60;;
14740;SDS011;7462;53.530;9.414;2022-07-29T09:37:45;6.00;;;2.90;;
14740;SDS011;7462;53.530;9.414;2022-07-29T09:40:15;6.47;;;2.57;;
14740;SDS011;7462;53.530;9.414;2022-07-29T09:42:44;5.20;;;2.60;;
14740;SDS011;7462;53.530;9.414;2022-07-29T09:45:14;6.03;;;2.93;;
14740;SDS011;7462;53.530;9.414;2022-07-29T09:47:55;7.23;;;2.70;;
14740;SDS011;7462;53.530;9.414;2022-07-29T09:50:36;6.93;;;2.87;;
14740;SDS011;7462;53.530;9.414;2022-07-29T09:53:07;6.63;;;2.93;;
14740;SDS011;7462;53.530;9.414;2022-07-29T09:55:46;4.03;;;2.53;;
14740;SDS011;7462;53.530;9.414;2022-07-29T09:58:17;5.57;;;2.87;;
14740;SDS011;7462;53.530;9.414;2022-07-29T10:00:48;7.97;;;3.00;;
14740;SDS011;7462;53.530;9.414;2022-07-29T10:03:18;5.40;;;2.67;;
14740;SDS011;7462;53.530;9.414;2022-07-29T10:06:03;5.90;;;2.60;;
14740;SDS011;7462;53.530;9.414;2022-07-29T10:08:34;5.73;;;2.80;;
14740;SDS011;7462;53.530;9.414;2022-07-29T10:11:09;5.37;;;2.87;;
14740;SDS011;7462;53.530;9.414;2022-07-29T10:13:39;5.00;;;2.63;;
14740;SDS011;7462;53.530;9.414;2022-07-29T10:16:08;5.63;;;2.83;;
14740;SDS011;7462;53.530;9.414;2022-07-29T10:18:39;4.73;;;2.50;;
14740;SDS011;7462;53.530;9.414;2022-07-29T10:21:09;4.23;;;2.40;;
14740;SDS011;7462;53.530;9.414;2022-07-29T10:23:59;4.83;;;3.10;;
14740;SDS011;7462;53.530;9.414;2022-07-29T10:26:28;6.63;;;2.70;;
14740;SDS011;7462;53.530;9.414;2022-07-29T10:28:57;5.90;;;2.70;;
14740;SDS011;7462;53.530;9.414;2022-07-29T10:31:27;4.70;;;2.40;;
14740;SDS011;7462;53.530;9.414;2022-07-29T10:34:04;6.33;;;3.87;;
14740;SDS011;7462;53.530;9.414;2022-07-29T10:36:45;5.83;;;2.50;;
14740;SDS011;7462;53.530;9.414;2022-07-29T10:39:27;5.90;;;2.73;;
14740;SDS011;7462;53.530;9.414;2022-07-29T10:42:11;5.77;;;2.77;;
14740;SDS011;7462;53.530;9.414;2022-07-29T10:44:45;5.93;;;2.60;;
14740;SDS011;7462;53.530;9.414;2022-07-29T10:47:20;5.13;;;2.63;;
14740;SDS011;7462;53.530;9.414;2022-07-29T10:49:56;7.67;;;2.77;;
14740;SDS011;7462;53.530;9.414;2022-07-29T10:55:31;4.97;;;2.50;;
14740;SDS011;7462;53.530;9.414;2022-07-29T10:58:12;4.37;;;2.63;;
14740;SDS011;7462;53.530;9.414;2022-07-29T11:00:43;5.23;;;2.53;;
14740;SDS011;7462;53.530;9.414;2022-07-29T11:06:16;3.20;;;2.60;;
14740;SDS011;7462;53.530;9.414;2022-07-29T11:11:47;5.00;;;2.70;;
14740;SDS011;7462;53.530;9.414;2022-07-29T11:14:17;5.47;;;2.33;;
14740;SDS011;7462;53.530;9.414;2022-07-29T11:16:58;5.57;;;2.30;;
14740;SDS011;7462;53.530;9.414;2022-07-29T11:19:50;3.97;;;2.60;;
14740;SDS011;7462;53.530;9.414;2022-07-29T11:22:32;3.40;;;2.20;;
14740;SDS011;7462;53.530;9.414;2022-07-29T11:25:14;4.67;;;2.10;;
14740;SDS011;7462;53.530;9.414;2022-07-29T11:27:44;4.60;;;1.97;;
14740;SDS011;7462;53.530;9.414;2022-07-29T11:30:13;5.37;;;2.10;;
14740;SDS011;7462;53.530;9.414;2022-07-29T11:32:42;4.47;;;2.30;;
14740;SDS011;7462;53.530;9.414;2022-07-29T11:35:15;3.97;;;2.10;;
14740;SDS011;7462;53.530;9.414;2022-07-29T11:38:25;3.70;;;2.03;;
14740;SDS011;7462;53.530;9.414;2022-07-29T11:43:50;8.47;;;2.27;;
14740;SDS011;7462;53.530;9.414;2022-07-29T11:49:19;5.23;;;2.10;;
14740;SDS011;7462;53.530;9.414;2022-07-29T11:51:58;5.33;;;1.47;;
14740;SDS011;7462;53.530;9.414;2022-07-29T11:54:30;2.23;;;1.60;;
14740;SDS011;7462;53.530;9.414;2022-07-29T11:57:20;5.97;;;1.70;;
14740;SDS011;7462;53.530;9.414;2022-07-29T12:00:04;3.17;;;1.70;;
14740;SDS011;7462;53.530;9.414;2022-07-29T12:02:40;3.30;;;1.80;;
14740;SDS011;7462;53.530;9.414;2022-07-29T12:05:14;6.43;;;1.83;;
14740;SDS011;7462;53.530;9.414;2022-07-29T12:08:09;3.93;;;1.63;;
14740;SDS011;7462;53.530;9.414;2022-07-29T12:10:40;4.60;;;1.87;;
14740;SDS011;7462;53.530;9.414;2022-07-29T12:13:10;2.27;;;1.37;;
14740;SDS011;7462;53.530;9.414;2022-07-29T12:15:40;5.33;;;1.70;;
14740;SDS011;7462;53.530;9.414;2022-07-29T12:18:17;5.73;;;1.67;;
14740;SDS011;7462;53.530;9.414;2022-07-29T12:20:56;6.83;;;1.93;;
14740;SDS011;7462;53.530;9.414;2022-07-29T12:23:29;3.90;;;1.67;;
14740;SDS011;7462;53.530;9.414;2022-07-29T12:26:03;3.30;;;1.67;;
14740;SDS011;7462;53.530;9.414;2022-07-29T12:28:36;2.97;;;1.47;;
14740;SDS011;7462;53.530;9.414;2022-07-29T12:31:11;3.83;;;1.63;;
14740;SDS011;7462;53.530;9.414;2022-07-29T12:34:01;3.10;;;1.53;;
14740;SDS011;7462;53.530;9.414;2022-07-29T12:36:29;4.10;;;1.90;;
14740;SDS011;7462;53.530;9.414;2022-07-29T12:38:58;3.67;;;1.90;;
14740;SDS011;7462;53.530;9.414;2022-07-29T12:41:27;4.40;;;1.57;;
14740;SDS011;7462;53.530;9.414;2022-07-29T12:43:55;3.80;;;1.73;;
14740;SDS011;7462;53.530;9.414;2022-07-29T12:46:25;3.63;;;1.60;;
14740;SDS011;7462;53.530;9.414;2022-07-29T12:48:53;3.60;;;1.50;;
14740;SDS011;7462;53.530;9.414;2022-07-29T12:51:28;4.40;;;1.53;;
14740;SDS011;7462;53.530;9.414;2022-07-29T12:54:04;4.13;;;1.70;;
14740;SDS011;7462;53.530;9.414;2022-07-29T12:56:34;2.80;;;1.60;;
14740;SDS011;7462;53.530;9.414;2022-07-29T12:59:11;2.80;;;1.70;;
14740;SDS011;7462;53.530;9.414;2022-07-29T13:01:42;1.70;;;1.50;;
14740;SDS011;7462;53.530;9.414;2022-07-29T13:04:11;2.90;;;1.80;;
14740;SDS011;7462;53.530;9.414;2022-07-29T13:06:57;5.47;;;1.63;;
14740;SDS011;7462;53.530;9.414;2022-07-29T13:09:35;3.57;;;1.53;;
14740;SDS011;7462;53.530;9.414;2022-07-29T13:12:05;6.37;;;1.73;;
14740;SDS011;7462;53.530;9.414;2022-07-29T13:14:37;4.80;;;1.43;;
14740;SDS011;7462;53.530;9.414;2022-07-29T13:17:08;3.57;;;1.40;;
14740;SDS011;7462;53.530;9.414;2022-07-29T13:19:37;5.57;;;1.80;;
14740;SDS011;7462;53.530;9.414;2022-07-29T13:22:07;4.17;;;1.53;;
14740;SDS011;7462;53.530;9.414;2022-07-29T13:24:45;5.33;;;1.93;;
14740;SDS011;7462;53.530;9.414;2022-07-29T13:27:16;3.17;;;1.57;;
14740;SDS011;7462;53.530;9.414;2022-07-29T13:29:46;3.90;;;1.40;;
14740;SDS011;7462;53.530;9.414;2022-07-29T13:32:16;3.57;;;1.63;;
14740;SDS011;7462;53.530;9.414;2022-07-29T13:34:53;2.57;;;1.13;;
14740;SDS011;7462;53.530;9.414;2022-07-29T13:37:22;3.90;;;1.47;;
14740;SDS011;7462;53.530;9.414;2022-07-29T13:39:52;2.93;;;1.40;;
14740;SDS011;7462;53.530;9.414;2022-07-29T13:42:20;3.03;;;1.47;;
14740;SDS011;7462;53.530;9.414;2022-07-29T13:44:49;2.70;;;1.53;;
14740;SDS011;7462;53.530;9.414;2022-07-29T13:47:19;4.97;;;1.87;;
14740;SDS011;7462;53.530;9.414;2022-07-29T13:49:58;5.40;;;1.50;;
14740;SDS011;7462;53.530;9.414;2022-07-29T13:52:26;3.80;;;1.43;;
14740;SDS011;7462;53.530;9.414;2022-07-29T13:54:55;4.13;;;1.57;;
14740;SDS011;7462;53.530;9.414;2022-07-29T13:57:23;3.33;;;1.60;;
14740;SDS011;7462;53.530;9.414;2022-07-29T13:59:51;3.10;;;1.30;;
14740;SDS011;7462;53.530;9.414;2022-07-29T14:02:21;3.90;;;1.60;;
14740;SDS011;7462;53.530;9.414;2022-07-29T14:04:51;4.53;;;1.50;;
14740;SDS011;7462;53.530;9.414;2022-07-29T14:07:20;2.97;;;1.40;;
14740;SDS011;7462;53.530;9.414;2022-07-29T14:09:48;4.20;;;1.77;;
14740;SDS011;7462;53.530;9.414;2022-07-29T14:12:16;3.40;;;1.50;;
14740;SDS011;7462;53.530;9.414;2022-07-29T14:14:46;3.30;;;1.53;;
14740;SDS011;7462;53.530;9.414;2022-07-29T14:17:14;2.27;;;1.30;;
14740;SDS011;7462;53.530;9.414;2022-07-29T14:19:44;3.37;;;1.40;;
14740;SDS011;7462;53.530;9.414;2022-07-29T14:22:12;3.60;;;1.43;;
14740;SDS011;7462;53.530;9.414;2022-07-29T14:24:41;4.00;;;1.40;;
14740;SDS011;7462;53.530;9.414;2022-07-29T14:27:10;3.57;;;1.50;;
14740;SDS011;7462;53.530;9.414;2022-07-29T14:29:39;6.27;;;1.80;;
14740;SDS011;7462;53.530;9.414;2022-07-29T14:32:08;3.90;;;1.70;;
14740;SDS011;7462;53.530;9.414;2022-07-29T14:34:38;4.90;;;1.63;;
14740;SDS011;7462;53.530;9.414;2022-07-29T14:37:07;4.07;;;1.60;;
14740;SDS011;7462;53.530;9.414;2022-07-29T14:39:41;3.83;;;1.93;;
14740;SDS011;7462;53.530;9.414;2022-07-29T14:42:09;4.77;;;1.60;;
14740;SDS011;7462;53.530;9.414;2022-07-29T14:44:39;3.17;;;1.60;;
14740;SDS011;7462;53.530;9.414;2022-07-29T14:47:08;3.13;;;1.70;;
14740;SDS011;7462;53.530;9.414;2022-07-29T14:49:36;3.50;;;1.70;;
14740;SDS011;7462;53.530;9.414;2022-07-29T14:52:05;5.90;;;1.63;;
14740;SDS011;7462;53.530;9.414;2022-07-29T14:54:34;5.13;;;1.80;;
14740;SDS011;7462;53.530;9.414;2022-07-29T14:57:02;3.77;;;1.60;;
14740;SDS011;7462;53.530;9.414;2022-07-29T14:59:30;4.60;;;1.47;;
14740;SDS011;7462;53.530;9.414;2022-07-29T15:01:59;5.20;;;1.67;;
14740;SDS011;7462;53.530;9.414;2022-07-29T15:04:28;3.30;;;1.73;;
14740;SDS011;7462;53.530;9.414;2022-07-29T15:06:56;3.20;;;1.80;;
14740;SDS011;7462;53.530;9.414;2022-07-29T15:09:24;4.87;;;2.03;;
14740;SDS011;7462;53.530;9.414;2022-07-29T15:11:54;3.10;;;1.60;;
14740;SDS011;7462;53.530;9.414;2022-07-29T15:14:23;5.43;;;1.67;;
14740;SDS011;7462;53.530;9.414;2022-07-29T15:16:51;2.57;;;1.63;;
14740;SDS011;7462;53.530;9.414;2022-07-29T15:19:19;3.57;;;2.10;;
14740;SDS011;7462;53.530;9.414;2022-07-29T15:21:47;4.43;;;1.90;;
14740;SDS011;7462;53.530;9.414;2022-07-29T15:24:16;3.07;;;1.80;;
14740;SDS011;7462;53.530;9.414;2022-07-29T15:26:45;4.60;;;2.00;;
14740;SDS011;7462;53.530;9.414;2022-07-29T15:29:14;7.07;;;2.00;;
14740;SDS011;7462;53.530;9.414;2022-07-29T15:31:43;6.50;;;1.90;;
14740;SDS011;7462;53.530;9.414;2022-07-29T15:34:11;4.30;;;1.90;;
14740;SDS011;7462;53.530;9.414;2022-07-29T15:36:40;3.63;;;2.20;;
14740;SDS011;7462;53.530;9.414;2022-07-29T15:39:17;6.53;;;2.00;;
14740;SDS011;7462;53.530;9.414;2022-07-29T15:41:46;4.60;;;2.03;;